sensor_id;sensor_type;location;lat;lon;timestamp;pressure;altitude;pressure_sealevel;temperature;humidity
10718;BME280;13513;42.700;23.124;2022-08-03T00:02:29;93013.70;;;19.39;70.42
10718;BME280;13513;42.700;23.124;2022-08-03T00:05:02;93012.87;;;19.27;71.20
10718;BME280;13513;42.700;23.124;2022-08-03T00:07:33;93006.75;;;19.24;71.71
10718;BME280;13513;42.700;23.124;2022-08-03T00:10:04;93007.30;;;19.21;72.11
10718;BME280;13513;42.700;23.124;2022-08-03T00:12:36;93008.53;;;19.13;72.08
10718;BME280;13513;42.700;23.124;2022-08-03T00:15:08;93012.41;;;19.07;73.70
10718;BME280;13513;42.700;23.124;2022-08-03T00:17:39;93007.06;;;19.20;72.25
10718;BME280;13513;42.700;23.124;2022-08-03T00:20:11;93007.14;;;19.15;72.74
10718;BME280;13513;42.700;23.124;2022-08-03T00:22:41;93009.16;;;19.23;72.11
10718;BME280;13513;42.700;23.124;2022-08-03T00:25:12;93007.98;;;19.29;71.84
10718;BME280;13513;42.700;23.124;2022-08-03T00:27:42;93003.44;;;19.30;71.62
10718;BME280;13513;42.700;23.124;2022-08-03T00:30:13;93008.80;;;19.30;71.64
10718;BME280;13513;42.700;23.124;2022-08-03T00:32:44;93004.77;;;19.30;71.55
10718;BME280;13513;42.700;23.124;2022-08-03T00:35:15;93004.31;;;19.25;72.38
10718;BME280;13513;42.700;23.124;2022-08-03T00:37:45;93002.48;;;19.21;72.94
10718;BME280;13513;42.700;23.124;2022-08-03T00:40:17;93005.14;;;19.23;73.14
10718;BME280;13513;42.700;23.124;2022-08-03T00:42:52;93004.78;;;19.14;73.40
10718;BME280;13513;42.700;23.124;2022-08-03T00:45:24;93006.30;;;19.04;74.81
10718;BME280;13513;42.700;23.124;2022-08-03T00:47:56;93002.81;;;19.03;74.93
10718;BME280;13513;42.700;23.124;2022-08-03T00:50:30;93001.48;;;19.17;74.10
10718;BME280;13513;42.700;23.124;2022-08-03T00:53:02;92998.17;;;19.22;73.40
10718;BME280;13513;42.700;23.124;2022-08-03T00:55:32;93002.81;;;19.03;75.13
10718;BME280;13513;42.700;23.124;2022-08-03T00:58:04;93006.73;;;18.95;75.91
10718;BME280;13513;42.700;23.124;2022-08-03T01:00:37;92999.06;;;19.04;74.82
10718;BME280;13513;42.700;23.124;2022-08-03T01:03:08;92993.66;;;19.07;74.19
10718;BME280;13513;42.700;23.124;2022-08-03T01:08:35;92999.98;;;18.97;75.26
10718;BME280;13513;42.700;23.124;2022-08-03T01:11:14;92993.00;;;18.99;74.95
10718;BME280;13513;42.700;23.124;2022-08-03T01:13:56;92994.12;;;18.95;75.27
10718;BME280;13513;42.700;23.124;2022-08-03T01:16:25;92998.48;;;18.91;75.91
10718;BME280;13513;42.700;23.124;2022-08-03T01:19:12;92995.99;;;18.81;76.69
10718;BME280;13513;42.700;23.124;2022-08-03T01:24:32;92986.30;;;18.83;76.20
10718;BME280;13513;42.700;23.124;2022-08-03T01:27:08;92988.34;;;18.88;75.92
10718;BME280;13513;42.700;23.124;2022-08-03T01:35:35;92990.52;;;18.73;76.18
10718;BME280;13513;42.700;23.124;2022-08-03T01:38:10;92987.31;;;18.71;76.84
10718;BME280;13513;42.700;23.124;2022-08-03T01:40:43;92990.67;;;18.63;77.38
10718;BME280;13513;42.700;23.124;2022-08-03T01:43:20;92989.46;;;18.71;77.11
10718;BME280;13513;42.700;23.124;2022-08-03T01:45:51;92990.80;;;18.71;76.98
10718;BME280;13513;42.700;23.124;2022-08-03T01:48:23;92997.30;;;18.68;77.32
10718;BME280;13513;42.700;23.124;2022-08-03T01:50:55;92998.13;;;18.66;77.28
10718;BME280;13513;42.700;23.124;2022-08-03T01:53:27;92993.69;;;18.59;77.86
10718;BME280;13513;42.700;23.124;2022-08-03T01:56:00;92991.09;;;18.54;78.17
10718;BME280;13513;42.700;23.124;2022-08-03T01:58:32;92994.02;;;18.55;78.88
10718;BME280;13513;42.700;23.124;2022-08-03T02:01:05;92993.02;;;18.51;79.10
10718;BME280;13513;42.700;23.124;2022-08-03T02:03:38;92992.44;;;18.54;79.97
10718;BME280;13513;42.700;23.124;2022-08-03T02:06:10;92997.70;;;18.43;80.80
10718;BME280;13513;42.700;23.124;2022-08-03T02:08:43;92993.86;;;18.49;79.85
10718;BME280;13513;42.700;23.124;2022-08-03T02:11:15;92998.13;;;18.50;79.83
10718;BME280;13513;42.700;23.124;2022-08-03T02:13:45;92994.31;;;18.53;79.53
10718;BME280;13513;42.700;23.124;2022-08-03T02:16:18;92990.58;;;18.52;79.59
10718;BME280;13513;42.700;23.124;2022-08-03T02:18:52;92991.97;;;18.49;79.84
10718;BME280;13513;42.700;23.124;2022-08-03T02:21:23;92991.54;;;18.42;81.44
10718;BME280;13513;42.700;23.124;2022-08-03T02:23:55;92994.41;;;18.30;83.04
10718;BME280;13513;42.700;23.124;2022-08-03T02:26:32;92991.58;;;18.21;83.89
10718;BME280;13513;42.700;23.124;2022-08-03T02:29:10;92993.53;;;18.37;81.90
10718;BME280;13513;42.700;23.124;2022-08-03T02:31:39;92992.78;;;18.31;82.83
10718;BME280;13513;42.700;23.124;2022-08-03T02:34:11;92986.87;;;18.32;82.54
10718;BME280;13513;42.700;23.124;2022-08-03T02:36:44;92994.26;;;18.21;84.70
10718;BME280;13513;42.700;23.124;2022-08-03T02:39:16;92990.71;;;18.07;86.44
10718;BME280;13513;42.700;23.124;2022-08-03T02:41:48;92986.48;;;18.22;84.66
10718;BME280;13513;42.700;23.124;2022-08-03T02:44:22;92981.94;;;18.23;84.71
10718;BME280;13513;42.700;23.124;2022-08-03T02:46:59;92984.86;;;18.24;85.10
10718;BME280;13513;42.700;23.124;2022-08-03T02:49:25;92983.84;;;18.20;84.81
10718;BME280;13513;42.700;23.124;2022-08-03T02:51:59;92980.41;;;18.17;84.96
10718;BME280;13513;42.700;23.124;2022-08-03T02:54:31;92975.29;;;18.20;84.69
10718;BME280;13513;42.700;23.124;2022-08-03T02:57:03;92980.88;;;18.21;84.79
10718;BME280;13513;42.700;23.124;2022-08-03T02:59:35;92983.41;;;18.13;86.23
10718;BME280;13513;42.700;23.124;2022-08-03T03:02:06;92991.83;;;18.22;84.92
10718;BME280;13513;42.700;23.124;2022-08-03T03:04:38;92987.53;;;18.24;84.87
10718;BME280;13513;42.700;23.124;2022-08-03T03:07:13;92989.37;;;18.07;86.69
10718;BME280;13513;42.700;23.124;2022-08-03T03:09:45;92992.38;;;18.03;87.63
10718;BME280;13513;42.700;23.124;2022-08-03T03:12:17;92991.11;;;18.17;86.25
10718;BME280;13513;42.700;23.124;2022-08-03T03:14:48;92994.44;;;18.09;87.15
10718;BME280;13513;42.700;23.124;2022-08-03T03:17:20;92996.98;;;18.00;88.39
10718;BME280;13513;42.700;23.124;2022-08-03T03:19:52;92992.86;;;18.08;87.27
10718;BME280;13513;42.700;23.124;2022-08-03T03:22:23;92996.30;;;18.11;87.41
10718;BME280;13513;42.700;23.124;2022-08-03T03:24:55;92997.48;;;18.02;87.67
10718;BME280;13513;42.700;23.124;2022-08-03T03:27:26;93008.66;;;18.07;88.29
10718;BME280;13513;42.700;23.124;2022-08-03T03:29:58;93002.50;;;18.06;88.10
10718;BME280;13513;42.700;23.124;2022-08-03T03:32:29;93006.76;;;18.07;87.92
10718;BME280;13513;42.700;23.124;2022-08-03T03:35:01;93007.45;;;17.97;89.17
10718;BME280;13513;42.700;23.124;2022-08-03T03:37:33;93006.02;;;18.04;86.79
10718;BME280;13513;42.700;23.124;2022-08-03T03:40:05;93008.38;;;18.08;87.78
10718;BME280;13513;42.700;23.124;2022-08-03T03:42:35;93014.53;;;18.06;88.42
10718;BME280;13513;42.700;23.124;2022-08-03T03:45:09;93013.75;;;18.24;87.17
10718;BME280;13513;42.700;23.124;2022-08-03T03:47:41;93018.85;;;18.23;87.09
10718;BME280;13513;42.700;23.124;2022-08-03T03:50:13;93019.97;;;18.38;85.86
10718;BME280;13513;42.700;23.124;2022-08-03T03:52:43;93014.76;;;18.47;85.30
10718;BME280;13513;42.700;23.124;2022-08-03T03:55:19;93015.72;;;18.53;84.53
10718;BME280;13513;42.700;23.124;2022-08-03T03:57:49;93019.00;;;18.50;85.40
10718;BME280;13513;42.700;23.124;2022-08-03T04:00:20;93017.71;;;18.64;84.16
10718;BME280;13513;42.700;23.124;2022-08-03T04:02:51;93022.30;;;18.77;83.03
10718;BME280;13513;42.700;23.124;2022-08-03T04:05:22;93017.75;;;18.77;83.65
10718;BME280;13513;42.700;23.124;2022-08-03T04:08:13;93018.38;;;18.72;84.07
10718;BME280;13513;42.700;23.124;2022-08-03T04:11:12;93020.33;;;18.82;83.87
10718;BME280;13513;42.700;23.124;2022-08-03T04:13:55;93024.69;;;18.62;85.84
10718;BME280;13513;42.700;23.124;2022-08-03T04:16:27;93024.93;;;18.47;86.25
10718;BME280;13513;42.700;23.124;2022-08-03T04:19:00;93026.27;;;18.47;86.57
10718;BME280;13513;42.700;23.124;2022-08-03T04:21:30;93021.83;;;18.56;85.50
10718;BME280;13513;42.700;23.124;2022-08-03T04:24:03;93023.40;;;18.76;84.61
10718;BME280;13513;42.700;23.124;2022-08-03T04:26:35;93025.20;;;18.94;83.73
10718;BME280;13513;42.700;23.124;2022-08-03T04:29:11;93024.58;;;18.99;85.08
10718;BME280;13513;42.700;23.124;2022-08-03T04:31:43;93021.80;;;19.20;86.01
10718;BME280;13513;42.700;23.124;2022-08-03T04:34:14;93023.61;;;19.38;84.00
10718;BME280;13513;42.700;23.124;2022-08-03T04:36:47;93028.20;;;19.51;83.39
10718;BME280;13513;42.700;23.124;2022-08-03T04:39:25;93027.70;;;19.63;81.57
10718;BME280;13513;42.700;23.124;2022-08-03T04:42:01;93033.11;;;19.60;83.00
10718;BME280;13513;42.700;23.124;2022-08-03T04:44:36;93030.64;;;19.64;81.21
10718;BME280;13513;42.700;23.124;2022-08-03T04:47:06;93029.72;;;19.82;82.19
10718;BME280;13513;42.700;23.124;2022-08-03T04:49:38;93034.21;;;20.25;76.46
10718;BME280;13513;42.700;23.124;2022-08-03T04:52:10;93039.38;;;20.68;76.40
10718;BME280;13513;42.700;23.124;2022-08-03T04:54:44;93035.92;;;21.11;74.75
10718;BME280;13513;42.700;23.124;2022-08-03T04:57:15;93036.02;;;21.78;70.83
10718;BME280;13513;42.700;23.124;2022-08-03T04:59:46;93039.28;;;22.59;66.20
10718;BME280;13513;42.700;23.124;2022-08-03T05:02:17;93042.31;;;23.41;63.69
10718;BME280;13513;42.700;23.124;2022-08-03T05:04:49;93041.52;;;24.24;59.77
10718;BME280;13513;42.700;23.124;2022-08-03T05:07:19;93040.69;;;25.08;55.23
10718;BME280;13513;42.700;23.124;2022-08-03T05:09:51;93042.83;;;25.79;52.53
10718;BME280;13513;42.700;23.124;2022-08-03T05:12:22;93046.82;;;26.60;50.40
10718;BME280;13513;42.700;23.124;2022-08-03T05:14:53;93048.95;;;27.12;48.87
10718;BME280;13513;42.700;23.124;2022-08-03T05:17:23;93049.69;;;27.58;47.76
10718;BME280;13513;42.700;23.124;2022-08-03T05:19:55;93053.27;;;28.05;45.99
10718;BME280;13513;42.700;23.124;2022-08-03T05:22:24;93053.81;;;28.42;44.16
10718;BME280;13513;42.700;23.124;2022-08-03T05:24:54;93053.39;;;28.34;42.59
10718;BME280;13513;42.700;23.124;2022-08-03T05:27:25;93052.39;;;28.73;42.69
10718;BME280;13513;42.700;23.124;2022-08-03T05:29:56;93056.63;;;29.24;39.58
10718;BME280;13513;42.700;23.124;2022-08-03T05:32:26;93057.05;;;29.45;40.43
10718;BME280;13513;42.700;23.124;2022-08-03T05:34:57;93057.99;;;29.33;39.29
10718;BME280;13513;42.700;23.124;2022-08-03T05:37:28;93059.48;;;28.87;39.12
10718;BME280;13513;42.700;23.124;2022-08-03T05:39:58;93058.25;;;28.75;40.00
10718;BME280;13513;42.700;23.124;2022-08-03T05:42:29;93056.73;;;28.58;40.54
10718;BME280;13513;42.700;23.124;2022-08-03T05:45:02;93061.48;;;28.80;40.55
10718;BME280;13513;42.700;23.124;2022-08-03T05:47:31;93066.28;;;29.02;41.20
10718;BME280;13513;42.700;23.124;2022-08-03T05:50:02;93066.95;;;29.53;40.01
10718;BME280;13513;42.700;23.124;2022-08-03T05:52:33;93067.52;;;29.43;40.03
10718;BME280;13513;42.700;23.124;2022-08-03T05:55:05;93066.17;;;28.89;41.84
10718;BME280;13513;42.700;23.124;2022-08-03T05:57:37;93066.16;;;28.80;41.81
10718;BME280;13513;42.700;23.124;2022-08-03T06:00:09;93068.00;;;28.51;43.25
10718;BME280;13513;42.700;23.124;2022-08-03T06:02:41;93067.92;;;28.47;43.08
10718;BME280;13513;42.700;23.124;2022-08-03T06:05:12;93071.97;;;28.32;42.89
10718;BME280;13513;42.700;23.124;2022-08-03T06:07:43;93079.61;;;28.11;42.92
10718;BME280;13513;42.700;23.124;2022-08-03T06:10:14;93088.11;;;28.25;43.04
10718;BME280;13513;42.700;23.124;2022-08-03T06:12:45;93079.22;;;28.49;42.23
10718;BME280;13513;42.700;23.124;2022-08-03T06:15:16;93088.78;;;28.12;42.39
10718;BME280;13513;42.700;23.124;2022-08-03T06:17:47;93089.70;;;28.26;44.14
10718;BME280;13513;42.700;23.124;2022-08-03T06:20:18;93089.92;;;27.90;44.10
10718;BME280;13513;42.700;23.124;2022-08-03T06:22:49;93087.91;;;27.32;46.03
10718;BME280;13513;42.700;23.124;2022-08-03T06:25:20;93091.17;;;27.37;44.54
10718;BME280;13513;42.700;23.124;2022-08-03T06:27:50;93092.43;;;27.89;44.43
10718;BME280;13513;42.700;23.124;2022-08-03T06:30:20;93088.00;;;28.43;43.57
10718;BME280;13513;42.700;23.124;2022-08-03T06:32:51;93088.95;;;28.35;43.18
10718;BME280;13513;42.700;23.124;2022-08-03T06:35:21;93094.72;;;28.02;44.08
10718;BME280;13513;42.700;23.124;2022-08-03T06:37:53;93095.97;;;28.20;43.21
10718;BME280;13513;42.700;23.124;2022-08-03T06:40:24;93085.60;;;28.47;44.19
10718;BME280;13513;42.700;23.124;2022-08-03T06:43:01;93089.83;;;28.54;42.27
10718;BME280;13513;42.700;23.124;2022-08-03T06:45:33;93090.41;;;28.54;42.75
10718;BME280;13513;42.700;23.124;2022-08-03T06:48:10;93096.05;;;28.24;42.07
10718;BME280;13513;42.700;23.124;2022-08-03T06:50:37;93091.81;;;28.48;43.45
10718;BME280;13513;42.700;23.124;2022-08-03T06:53:07;93089.96;;;28.52;43.75
10718;BME280;13513;42.700;23.124;2022-08-03T06:55:38;93093.66;;;29.09;41.41
10718;BME280;13513;42.700;23.124;2022-08-03T06:58:12;93093.53;;;29.21;41.52
10718;BME280;13513;42.700;23.124;2022-08-03T07:00:46;93096.50;;;29.70;39.79
10718;BME280;13513;42.700;23.124;2022-08-03T07:03:17;93088.81;;;29.85;40.44
10718;BME280;13513;42.700;23.124;2022-08-03T07:05:48;93091.20;;;29.67;40.76
10718;BME280;13513;42.700;23.124;2022-08-03T07:08:18;93092.24;;;29.44;40.90
10718;BME280;13513;42.700;23.124;2022-08-03T07:10:48;93093.23;;;29.17;41.48
10718;BME280;13513;42.700;23.124;2022-08-03T07:13:18;93091.67;;;29.35;41.79
10718;BME280;13513;42.700;23.124;2022-08-03T07:15:49;93093.03;;;29.35;42.07
10718;BME280;13513;42.700;23.124;2022-08-03T07:18:20;93092.89;;;29.37;41.12
10718;BME280;13513;42.700;23.124;2022-08-03T07:20:51;93087.86;;;29.11;41.20
10718;BME280;13513;42.700;23.124;2022-08-03T07:23:22;93086.50;;;29.87;41.74
10718;BME280;13513;42.700;23.124;2022-08-03T07:25:52;93086.64;;;30.71;40.15
10718;BME280;13513;42.700;23.124;2022-08-03T07:28:22;93095.02;;;31.50;37.19
10718;BME280;13513;42.700;23.124;2022-08-03T07:30:53;93100.31;;;31.82;37.20
10718;BME280;13513;42.700;23.124;2022-08-03T07:33:23;93103.86;;;30.75;38.32
10718;BME280;13513;42.700;23.124;2022-08-03T07:35:54;93100.84;;;30.80;38.83
10718;BME280;13513;42.700;23.124;2022-08-03T07:38:25;93107.48;;;30.60;40.00
10718;BME280;13513;42.700;23.124;2022-08-03T07:40:55;93103.17;;;30.82;39.28
10718;BME280;13513;42.700;23.124;2022-08-03T07:43:26;93100.67;;;30.96;39.10
10718;BME280;13513;42.700;23.124;2022-08-03T07:45:57;93105.81;;;31.14;38.17
10718;BME280;13513;42.700;23.124;2022-08-03T07:48:28;93099.62;;;31.17;38.30
10718;BME280;13513;42.700;23.124;2022-08-03T07:50:59;93102.02;;;31.77;37.94
10718;BME280;13513;42.700;23.124;2022-08-03T07:53:30;93106.95;;;32.18;34.71
10718;BME280;13513;42.700;23.124;2022-08-03T07:56:00;93106.16;;;31.51;35.63
10718;BME280;13513;42.700;23.124;2022-08-03T07:58:31;93106.17;;;31.68;35.73
10718;BME280;13513;42.700;23.124;2022-08-03T08:01:05;93111.92;;;31.76;34.69
10718;BME280;13513;42.700;23.124;2022-08-03T08:03:36;93113.81;;;31.55;35.08
10718;BME280;13513;42.700;23.124;2022-08-03T08:06:07;93111.05;;;31.52;35.18
10718;BME280;13513;42.700;23.124;2022-08-03T08:08:38;93106.52;;;31.79;35.36
10718;BME280;13513;42.700;23.124;2022-08-03T08:11:09;93104.02;;;33.00;36.46
10718;BME280;13513;42.700;23.124;2022-08-03T08:13:40;93110.31;;;34.24;30.51
10718;BME280;13513;42.700;23.124;2022-08-03T08:16:10;93109.44;;;35.35;30.01
10718;BME280;13513;42.700;23.124;2022-08-03T08:18:41;93117.06;;;36.24;29.18
10718;BME280;13513;42.700;23.124;2022-08-03T08:21:12;93113.98;;;36.99;27.29
10718;BME280;13513;42.700;23.124;2022-08-03T08:23:43;93108.92;;;36.94;28.94
10718;BME280;13513;42.700;23.124;2022-08-03T08:26:14;93116.70;;;37.06;25.90
10718;BME280;13513;42.700;23.124;2022-08-03T08:28:44;93114.37;;;37.70;26.43
10718;BME280;13513;42.700;23.124;2022-08-03T08:31:14;93112.36;;;38.53;24.31
10718;BME280;13513;42.700;23.124;2022-08-03T08:33:45;93102.36;;;37.47;26.28
10718;BME280;13513;42.700;23.124;2022-08-03T08:36:16;93104.22;;;35.86;30.16
10718;BME280;13513;42.700;23.124;2022-08-03T08:38:47;93104.41;;;36.66;28.54
10718;BME280;13513;42.700;23.124;2022-08-03T08:41:18;93104.84;;;36.87;27.17
10718;BME280;13513;42.700;23.124;2022-08-03T08:43:48;93109.66;;;35.11;28.99
10718;BME280;13513;42.700;23.124;2022-08-03T08:46:21;93099.62;;;35.41;30.23
10718;BME280;13513;42.700;23.124;2022-08-03T08:48:58;93105.28;;;36.13;27.83
10718;BME280;13513;42.700;23.124;2022-08-03T08:51:30;93102.97;;;35.19;28.47
10718;BME280;13513;42.700;23.124;2022-08-03T08:54:04;93098.09;;;34.91;29.09
10718;BME280;13513;42.700;23.124;2022-08-03T08:56:36;93102.20;;;33.94;29.21
10718;BME280;13513;42.700;23.124;2022-08-03T08:59:07;93098.07;;;34.94;27.78
10718;BME280;13513;42.700;23.124;2022-08-03T09:01:38;93096.70;;;34.94;28.84
10718;BME280;13513;42.700;23.124;2022-08-03T09:04:09;93086.25;;;35.46;28.46
10718;BME280;13513;42.700;23.124;2022-08-03T09:06:40;93095.70;;;37.22;27.14
10718;BME280;13513;42.700;23.124;2022-08-03T09:09:11;93094.49;;;36.76;26.34
10718;BME280;13513;42.700;23.124;2022-08-03T09:11:44;93091.08;;;37.09;26.13
10718;BME280;13513;42.700;23.124;2022-08-03T09:14:14;93093.45;;;37.32;23.98
10718;BME280;13513;42.700;23.124;2022-08-03T09:16:59;93088.39;;;38.84;24.43
10718;BME280;13513;42.700;23.124;2022-08-03T09:19:33;93089.97;;;39.89;22.41
10718;BME280;13513;42.700;23.124;2022-08-03T09:22:16;93097.41;;;41.10;21.25
10718;BME280;13513;42.700;23.124;2022-08-03T09:25:04;93102.70;;;41.05;20.97
10718;BME280;13513;42.700;23.124;2022-08-03T09:27:41;93096.69;;;40.98;20.61
10718;BME280;13513;42.700;23.124;2022-08-03T09:30:03;93093.42;;;41.35;20.05
10718;BME280;13513;42.700;23.124;2022-08-03T09:32:35;93095.47;;;40.83;20.58
10718;BME280;13513;42.700;23.124;2022-08-03T09:35:07;93090.03;;;39.74;20.95
10718;BME280;13513;42.700;23.124;2022-08-03T09:37:38;93083.30;;;37.63;25.51
10718;BME280;13513;42.700;23.124;2022-08-03T09:40:09;93086.98;;;35.64;28.41
10718;BME280;13513;42.700;23.124;2022-08-03T09:42:54;93093.98;;;33.97;26.01
10718;BME280;13513;42.700;23.124;2022-08-03T09:45:24;93095.18;;;32.50;27.83
10718;BME280;13513;42.700;23.124;2022-08-03T09:47:44;93086.66;;;32.02;29.55
10718;BME280;13513;42.700;23.124;2022-08-03T09:50:15;93093.76;;;31.90;29.80
10718;BME280;13513;42.700;23.124;2022-08-03T09:52:47;93089.73;;;31.97;29.62
10718;BME280;13513;42.700;23.124;2022-08-03T09:55:18;93092.31;;;31.83;29.54
10718;BME280;13513;42.700;23.124;2022-08-03T09:57:49;93084.93;;;31.87;33.14
10718;BME280;13513;42.700;23.124;2022-08-03T10:00:20;93080.06;;;31.41;31.68
10718;BME280;13513;42.700;23.124;2022-08-03T10:02:51;93081.47;;;31.18;31.82
10718;BME280;13513;42.700;23.124;2022-08-03T10:05:30;93079.62;;;30.70;33.96
10718;BME280;13513;42.700;23.124;2022-08-03T10:07:55;93082.58;;;30.84;32.84
10718;BME280;13513;42.700;23.124;2022-08-03T10:10:26;93080.64;;;31.14;32.67
10718;BME280;13513;42.700;23.124;2022-08-03T10:12:57;93075.17;;;31.40;31.53
10718;BME280;13513;42.700;23.124;2022-08-03T10:15:29;93069.38;;;31.03;33.33
10718;BME280;13513;42.700;23.124;2022-08-03T10:18:00;93075.34;;;30.37;33.37
10718;BME280;13513;42.700;23.124;2022-08-03T10:20:35;93065.81;;;30.15;35.10
10718;BME280;13513;42.700;23.124;2022-08-03T10:23:03;93063.88;;;30.06;34.89
10718;BME280;13513;42.700;23.124;2022-08-03T10:25:37;93062.70;;;29.93;36.28
10718;BME280;13513;42.700;23.124;2022-08-03T10:28:12;93063.70;;;30.27;34.42
10718;BME280;13513;42.700;23.124;2022-08-03T10:30:43;93052.60;;;30.75;36.06
10718;BME280;13513;42.700;23.124;2022-08-03T10:33:23;93053.33;;;30.72;34.50
10718;BME280;13513;42.700;23.124;2022-08-03T10:35:54;93055.16;;;30.42;36.61
10718;BME280;13513;42.700;23.124;2022-08-03T10:38:28;93052.95;;;30.38;32.82
10718;BME280;13513;42.700;23.124;2022-08-03T10:40:58;93050.19;;;30.47;34.02
10718;BME280;13513;42.700;23.124;2022-08-03T10:43:40;93050.00;;;30.72;35.86
10718;BME280;13513;42.700;23.124;2022-08-03T10:46:05;93048.56;;;30.69;33.35
10718;BME280;13513;42.700;23.124;2022-08-03T10:48:37;93049.75;;;30.81;35.95
10718;BME280;13513;42.700;23.124;2022-08-03T10:51:10;93044.97;;;30.26;33.94
10718;BME280;13513;42.700;23.124;2022-08-03T10:53:41;93042.36;;;30.81;36.38
10718;BME280;13513;42.700;23.124;2022-08-03T11:00:04;93039.63;;;30.00;36.19
10718;BME280;13513;42.700;23.124;2022-08-03T11:01:55;93039.59;;;30.10;34.95
10718;BME280;13513;42.700;23.124;2022-08-03T11:04:28;93038.58;;;29.25;36.14
10718;BME280;13513;42.700;23.124;2022-08-03T11:07:20;93035.45;;;28.98;35.43
10718;BME280;13513;42.700;23.124;2022-08-03T11:09:53;93033.63;;;29.31;36.27
10718;BME280;13513;42.700;23.124;2022-08-03T11:12:27;93030.91;;;29.59;37.07
10718;BME280;13513;42.700;23.124;2022-08-03T11:15:00;93028.02;;;29.71;36.00
10718;BME280;13513;42.700;23.124;2022-08-03T11:17:33;93028.95;;;29.50;36.01
10718;BME280;13513;42.700;23.124;2022-08-03T11:20:05;93026.73;;;29.65;35.08
10718;BME280;13513;42.700;23.124;2022-08-03T11:22:50;93028.36;;;29.79;38.18
10718;BME280;13513;42.700;23.124;2022-08-03T11:25:22;93034.55;;;29.29;36.68
10718;BME280;13513;42.700;23.124;2022-08-03T11:28:23;93039.23;;;28.50;36.71
10718;BME280;13513;42.700;23.124;2022-08-03T11:30:26;93052.84;;;28.94;35.97
10718;BME280;13513;42.700;23.124;2022-08-03T11:32:58;93054.91;;;29.06;38.83
10718;BME280;13513;42.700;23.124;2022-08-03T11:35:33;93049.75;;;29.01;39.23
10718;BME280;13513;42.700;23.124;2022-08-03T11:38:05;93040.95;;;28.92;41.20
10718;BME280;13513;42.700;23.124;2022-08-03T11:40:40;93049.02;;;28.70;42.88
10718;BME280;13513;42.700;23.124;2022-08-03T11:46:02;93063.61;;;28.00;50.60
10718;BME280;13513;42.700;23.124;2022-08-03T11:48:41;93073.34;;;27.52;56.46
10718;BME280;13513;42.700;23.124;2022-08-03T11:51:19;93079.45;;;27.15;61.26
10718;BME280;13513;42.700;23.124;2022-08-03T11:53:53;93085.56;;;26.73;67.02
10718;BME280;13513;42.700;23.124;2022-08-03T11:56:26;93076.56;;;25.82;67.34
10718;BME280;13513;42.700;23.124;2022-08-03T11:58:58;93073.16;;;24.93;66.57
10718;BME280;13513;42.700;23.124;2022-08-03T12:01:29;93060.03;;;24.34;75.15
10718;BME280;13513;42.700;23.124;2022-08-03T12:04:04;93056.24;;;23.74;77.61
10718;BME280;13513;42.700;23.124;2022-08-03T12:06:34;93051.10;;;23.75;81.71
10718;BME280;13513;42.700;23.124;2022-08-03T12:09:23;93056.04;;;23.65;77.03
10718;BME280;13513;42.700;23.124;2022-08-03T12:11:54;93049.91;;;23.47;84.96
10718;BME280;13513;42.700;23.124;2022-08-03T12:14:25;93041.95;;;23.36;82.81
10718;BME280;13513;42.700;23.124;2022-08-03T12:16:56;93039.67;;;23.24;78.80
10718;BME280;13513;42.700;23.124;2022-08-03T12:19:27;93031.56;;;23.06;85.96
10718;BME280;13513;42.700;23.124;2022-08-03T12:21:59;93028.55;;;23.08;89.83
10718;BME280;13513;42.700;23.124;2022-08-03T12:24:39;93030.75;;;23.14;82.12
10718;BME280;13513;42.700;23.124;2022-08-03T12:27:02;93019.27;;;23.29;70.76
10718;BME280;13513;42.700;23.124;2022-08-03T12:29:31;93021.35;;;23.46;79.17
10718;BME280;13513;42.700;23.124;2022-08-03T12:32:03;93013.28;;;23.61;88.35
10718;BME280;13513;42.700;23.124;2022-08-03T12:34:49;93018.87;;;23.15;90.59
10718;BME280;13513;42.700;23.124;2022-08-03T12:37:20;93020.09;;;23.03;88.04
10718;BME280;13513;42.700;23.124;2022-08-03T12:39:58;93016.05;;;22.86;89.78
10718;BME280;13513;42.700;23.124;2022-08-03T12:42:33;93019.33;;;22.77;91.48
10718;BME280;13513;42.700;23.124;2022-08-03T12:45:20;93020.19;;;22.84;94.82
10718;BME280;13513;42.700;23.124;2022-08-03T12:47:56;93013.63;;;22.79;95.38
10718;BME280;13513;42.700;23.124;2022-08-03T12:50:30;93016.77;;;22.81;95.87
10718;BME280;13513;42.700;23.124;2022-08-03T12:53:05;93021.22;;;22.94;98.54
10718;BME280;13513;42.700;23.124;2022-08-03T12:55:37;93017.06;;;23.22;98.87
10718;BME280;13513;42.700;23.124;2022-08-03T12:58:08;93011.37;;;23.47;86.77
10718;BME280;13513;42.700;23.124;2022-08-03T13:00:40;93009.80;;;23.60;89.91
10718;BME280;13513;42.700;23.124;2022-08-03T13:03:11;93005.69;;;23.54;88.75
10718;BME280;13513;42.700;23.124;2022-08-03T13:05:45;92996.93;;;23.66;88.38
10718;BME280;13513;42.700;23.124;2022-08-03T13:08:24;93001.91;;;23.70;85.99
10718;BME280;13513;42.700;23.124;2022-08-03T13:10:51;92999.53;;;23.68;87.65
10718;BME280;13513;42.700;23.124;2022-08-03T13:13:38;93003.97;;;23.73;87.37
10718;BME280;13513;42.700;23.124;2022-08-03T13:16:08;93000.24;;;23.86;86.88
10718;BME280;13513;42.700;23.124;2022-08-03T13:18:39;92996.37;;;24.04;87.52
10718;BME280;13513;42.700;23.124;2022-08-03T13:21:11;92994.60;;;24.08;86.61
10718;BME280;13513;42.700;23.124;2022-08-03T13:23:42;92993.00;;;24.21;85.72
10718;BME280;13513;42.700;23.124;2022-08-03T13:26:14;92995.98;;;24.14;84.96
10718;BME280;13513;42.700;23.124;2022-08-03T13:28:44;92994.41;;;24.13;85.19
10718;BME280;13513;42.700;23.124;2022-08-03T13:31:15;93005.78;;;24.33;89.65
10718;BME280;13513;42.700;23.124;2022-08-03T13:33:46;93001.70;;;24.47;80.33
10718;BME280;13513;42.700;23.124;2022-08-03T13:36:17;92997.13;;;24.68;81.83